Main page
Satellite images 15-day forecastsClimateMarine weather Cyclones Lightning AirportsFAQ Newsletter About
Weather : Europe Africa North America South America Asia Australia-Oceania Others
Languages Contact

Mexicali, Mexico

General Rodolfo Sánchez Taboada

latitude: 32-37-50N, longitude: 115-14-30W, elevation: 22 m


METAR: MMML 240449Z 25005KT 10SM SKC 37/08 A2972
short-TAF: out of date (49162 hours)
long-TAF: MMML 240433Z 2406/2506 18005KT P6SM SCT250 FM241600 26010KT P6SM SCT250 FM250200 33005KT P6SM SCT250

Time: 07:20 (12:20 UTC)

Current weather observation

The report was made 7 hours and 31 minutes ago, at 04:49 UTC  
Wind 05 kt from the West/Southwest
Temperature 37°C
Humidity 17%
Pressure 1006 hPa
Visibility 16.1 km
Clear sky

Change units

Forecast

The report was made 7 hours and 41 minutes ago, at 04:39 UTC  
Forecast valid from 24 at 06 UTC to 25 at 06 UTC
Wind 05 kt from the South
Visibility 10 km
Scattered clouds at a height of 25000 ft
From 24 at 1600 UTC
Wind 10 kt from the West
Visibility 10 km
Scattered clouds at a height of 25000 ft
From 25 at 0200 UTC
Wind 05 kt from the North/Northwest
Visibility 10 km
Scattered clouds at a height of 25000 ft
The information on this site is subject to a disclaimer
Weather : Europe Africa North America South America Asia Australia-Oceania Others
Satellite images 15-day forecastsClimateMarine weather Cyclones Lightning AirportsFAQ Languages Contact Newsletter About